createdAt,value
2023-05-14T00:00:59.633Z,91.51
2023-05-14T00:03:27.572Z,92.53
2023-05-14T00:05:56.778Z,92.08
2023-05-14T00:08:24.637Z,91.90
2023-05-14T00:10:52.446Z,91.79
2023-05-14T00:13:20.253Z,91.73
2023-05-14T00:15:48.079Z,91.15
2023-05-14T00:18:15.965Z,91.63
2023-05-14T00:20:44.017Z,92.48
2023-05-14T00:23:13.193Z,92.92
2023-05-14T00:25:41.068Z,93.05
2023-05-14T00:28:08.835Z,93.60
2023-05-14T00:30:36.646Z,93.32
2023-05-14T00:33:05.040Z,93.60
2023-05-14T00:35:35.223Z,93.71
2023-05-14T00:38:03.466Z,93.25
2023-05-14T00:40:32.731Z,94.24
2023-05-14T00:43:00.706Z,93.86
2023-05-14T00:45:29.137Z,93.94
2023-05-14T00:47:57.120Z,94.35
2023-05-14T00:50:25.452Z,94.31
2023-05-14T00:52:53.745Z,94.38
2023-05-14T00:55:23.465Z,94.77
2023-05-14T00:57:55.740Z,94.41
2023-05-14T01:00:23.995Z,94.80
2023-05-14T01:02:51.966Z,94.83
2023-05-14T01:05:20.041Z,94.17
2023-05-14T01:07:58.389Z,94.69
2023-05-14T01:10:31.461Z,94.46
2023-05-14T01:13:05.174Z,95.46
2023-05-14T01:15:35.472Z,98.06
2023-05-14T01:18:05.594Z,97.93
2023-05-14T01:20:33.469Z,96.56
2023-05-14T01:23:02.646Z,95.53
2023-05-14T01:25:31.703Z,96.05
2023-05-14T01:28:07.664Z,95.72
2023-05-14T01:30:37.878Z,95.87
2023-05-14T01:33:09.980Z,96.35
2023-05-14T01:35:38.332Z,96.69
2023-05-14T01:38:10.599Z,96.99
2023-05-14T01:40:38.738Z,97.12
2023-05-14T01:43:07.371Z,97.39
2023-05-14T01:45:37.744Z,96.85
2023-05-14T01:48:06.445Z,95.74
2023-05-14T01:50:34.494Z,94.59
2023-05-14T01:53:02.319Z,94.99
2023-05-14T01:55:31.542Z,95.43
2023-05-14T01:57:59.352Z,95.97
2023-05-14T02:00:28.398Z,96.22
2023-05-14T02:02:56.247Z,96.53
2023-05-14T02:05:24.480Z,96.68
2023-05-14T02:07:53.698Z,97.02
2023-05-14T02:10:22.015Z,96.18
2023-05-14T02:12:52.163Z,96.87
2023-05-14T02:15:20.080Z,96.49
2023-05-14T02:17:47.986Z,96.99
2023-05-14T02:20:15.932Z,96.85
2023-05-14T02:22:45.693Z,97.15
2023-05-14T02:25:13.665Z,97.38
2023-05-14T02:27:41.466Z,98.47
2023-05-14T02:30:12.663Z,97.87
2023-05-14T02:32:40.653Z,96.80
2023-05-14T02:35:09.369Z,97.08
2023-05-14T02:37:38.358Z,97.63
2023-05-14T02:40:07.916Z,98.38
2023-05-14T02:42:35.840Z,97.26
2023-05-14T02:45:03.564Z,97.67
2023-05-14T02:47:33.031Z,99.92
2023-05-14T02:50:00.897Z,100.00
2023-05-14T02:52:28.692Z,99.35
2023-05-14T02:54:56.509Z,98.81
2023-05-14T02:57:24.417Z,98.09
2023-05-14T02:59:52.258Z,98.35
2023-05-14T03:02:20.650Z,98.59
2023-05-14T03:04:50.487Z,98.95
2023-05-14T03:07:18.294Z,97.83
2023-05-14T03:09:46.197Z,97.93
2023-05-14T03:12:14.442Z,98.81
2023-05-14T03:14:42.287Z,98.34
2023-05-14T03:17:10.401Z,99.36
2023-05-14T03:19:38.264Z,99.17
2023-05-14T03:22:09.914Z,99.29
2023-05-14T03:24:39.972Z,98.78
2023-05-14T03:27:07.866Z,98.74
2023-05-14T03:29:35.822Z,99.55
2023-05-14T03:32:03.643Z,99.90
2023-05-14T03:34:31.458Z,100.00
2023-05-14T03:36:59.991Z,100.00
2023-05-14T03:39:29.144Z,99.13
2023-05-14T03:41:59.015Z,98.92
2023-05-14T03:44:26.918Z,99.35
2023-05-14T03:46:54.687Z,99.58
2023-05-14T03:49:22.813Z,99.30
2023-05-14T03:51:51.377Z,99.59
2023-05-14T03:54:19.328Z,99.69
2023-05-14T03:56:48.552Z,99.65
2023-05-14T03:59:16.297Z,99.02
2023-05-14T04:01:44.699Z,99.03
2023-05-14T04:04:12.658Z,99.77
2023-05-14T04:06:40.840Z,99.58
2023-05-14T04:09:10.651Z,100.00
2023-05-14T04:11:38.566Z,100.00
2023-05-14T04:14:08.280Z,99.52
2023-05-14T04:16:36.194Z,97.28
2023-05-14T04:19:04.887Z,94.17
2023-05-14T04:21:32.820Z,89.65
2023-05-14T04:24:00.900Z,87.65
2023-05-14T04:26:28.668Z,84.49
2023-05-14T04:28:56.576Z,82.04
2023-05-14T04:31:26.045Z,80.13
2023-05-14T04:33:53.861Z,78.49
2023-05-14T04:36:21.640Z,78.37
2023-05-14T04:38:49.399Z,79.04
2023-05-14T04:41:17.215Z,78.37
2023-05-14T04:43:44.897Z,78.60
2023-05-14T04:46:13.894Z,77.01
2023-05-14T04:48:43.361Z,77.55
2023-05-14T04:51:11.243Z,82.21
2023-05-14T04:53:39.055Z,87.66
2023-05-14T04:56:07.321Z,90.23
2023-05-14T04:58:35.403Z,92.22
2023-05-14T05:01:05.866Z,91.12
2023-05-14T05:03:33.924Z,91.13
2023-05-14T05:06:03.403Z,92.08
2023-05-14T05:08:32.142Z,91.41
2023-05-14T05:10:59.940Z,89.79
2023-05-14T05:13:27.683Z,90.40
2023-05-14T05:15:55.513Z,93.71
2023-05-14T05:18:23.316Z,93.63
2023-05-14T05:20:51.560Z,95.41
2023-05-14T05:23:20.768Z,93.70
2023-05-14T05:25:48.548Z,96.55
2023-05-14T05:28:16.310Z,96.17
2023-05-14T05:30:45.164Z,94.79
2023-05-14T05:33:13.489Z,91.91
2023-05-14T05:35:41.796Z,89.35
2023-05-14T05:38:09.655Z,90.05
2023-05-14T05:40:38.958Z,89.04
2023-05-14T05:43:06.799Z,88.88
2023-05-14T05:45:34.759Z,89.91
2023-05-14T05:48:03.041Z,90.63
2023-05-14T05:50:32.687Z,91.97
2023-05-14T05:53:00.513Z,92.33
2023-05-14T05:55:28.272Z,92.07
2023-05-14T05:57:57.626Z,89.97
2023-05-14T06:00:25.757Z,88.28
2023-05-14T06:02:53.808Z,88.85
2023-05-14T06:05:21.865Z,89.28
2023-05-14T06:07:49.773Z,87.33
2023-05-14T06:10:17.666Z,84.25
2023-05-14T06:12:45.563Z,83.44
2023-05-14T06:15:15.568Z,81.64
2023-05-14T06:17:43.362Z,82.27
2023-05-14T06:20:12.114Z,88.92
2023-05-14T06:22:39.976Z,87.12
2023-05-14T06:25:08.927Z,83.83
2023-05-14T06:27:36.759Z,85.33
2023-05-14T06:30:04.959Z,83.56
2023-05-14T06:32:34.167Z,82.76
2023-05-14T06:35:01.996Z,81.33
2023-05-14T06:37:29.779Z,80.18
2023-05-14T06:39:58.055Z,80.75
2023-05-14T06:42:26.404Z,79.64
2023-05-14T06:44:54.542Z,79.89
2023-05-14T06:47:22.432Z,77.82
2023-05-14T06:49:51.704Z,77.96
2023-05-14T06:52:19.602Z,79.72
2023-05-14T06:54:47.437Z,76.57
2023-05-14T06:57:15.253Z,78.62
2023-05-14T06:59:43.152Z,75.20
2023-05-14T07:02:11.392Z,72.02
2023-05-14T07:04:39.243Z,72.99
2023-05-14T07:07:10.513Z,73.82
2023-05-14T07:09:38.321Z,72.14
2023-05-14T07:12:07.222Z,70.60
2023-05-14T07:14:35.430Z,66.52
2023-05-14T07:17:03.258Z,67.63
2023-05-14T07:19:31.194Z,68.74
2023-05-14T07:21:58.991Z,67.17
2023-05-14T07:24:28.289Z,65.80
2023-05-14T07:26:57.239Z,65.33
2023-05-14T07:29:25.729Z,65.56
2023-05-14T07:31:53.630Z,65.49
2023-05-14T07:34:21.592Z,64.70
2023-05-14T07:36:49.725Z,64.46
2023-05-14T07:39:17.585Z,66.21
2023-05-14T07:41:46.865Z,65.26
2023-05-14T07:44:14.698Z,68.20
2023-05-14T07:46:42.982Z,59.25
2023-05-14T07:49:10.799Z,61.54
2023-05-14T07:51:38.706Z,61.55
2023-05-14T07:54:06.615Z,57.64
2023-05-14T07:56:34.677Z,58.06
2023-05-14T07:59:03.877Z,57.96
2023-05-14T08:01:32.363Z,58.18
2023-05-14T08:04:00.316Z,59.48
2023-05-14T08:06:29.573Z,56.42
2023-05-14T08:08:57.368Z,57.75
2023-05-14T08:11:26.181Z,57.44
2023-05-14T08:13:54.029Z,59.49
2023-05-14T08:16:23.490Z,59.03
2023-05-14T08:18:51.523Z,58.20
2023-05-14T08:21:19.354Z,53.81
2023-05-14T08:23:47.225Z,52.20
2023-05-14T08:26:15.079Z,52.28
2023-05-14T08:28:43.086Z,56.14
2023-05-14T08:31:11.348Z,52.64
2023-05-14T08:33:40.859Z,55.67
2023-05-14T08:36:09.266Z,51.78
2023-05-14T08:38:37.074Z,53.64
2023-05-14T08:41:07.430Z,53.27
2023-05-14T08:43:43.595Z,54.34
2023-05-14T08:46:15.154Z,50.38
2023-05-14T08:48:48.370Z,49.77
2023-05-14T08:51:16.310Z,49.70
2023-05-14T08:53:44.083Z,50.02
2023-05-14T08:56:13.041Z,50.52
2023-05-14T08:58:40.888Z,51.49
2023-05-14T09:01:08.720Z,51.12
2023-05-14T09:03:38.059Z,49.28
2023-05-14T09:06:08.621Z,48.58
2023-05-14T09:08:38.703Z,49.57
2023-05-14T09:11:06.783Z,48.95
2023-05-14T09:13:37.527Z,48.76
2023-05-14T09:16:05.794Z,49.55
2023-05-14T09:18:33.710Z,50.89
2023-05-14T09:21:02.673Z,49.61
2023-05-14T09:23:34.625Z,51.30
2023-05-14T09:26:05.870Z,51.23
2023-05-14T09:28:33.805Z,51.38
2023-05-14T09:31:03.074Z,50.78
2023-05-14T09:33:31.057Z,50.67
2023-05-14T09:36:02.571Z,49.38
2023-05-14T09:38:30.896Z,51.06
2023-05-14T09:41:01.506Z,49.11
2023-05-14T09:43:29.413Z,49.05
2023-05-14T09:45:57.201Z,48.30
2023-05-14T09:48:25.121Z,49.65
2023-05-14T09:50:53.149Z,47.09
2023-05-14T09:53:21.085Z,48.56
2023-05-14T09:55:49.319Z,48.82
2023-05-14T09:58:18.635Z,49.01
2023-05-14T10:00:47.662Z,49.25
2023-05-14T10:03:19.588Z,49.35
2023-05-14T10:05:50.981Z,49.82
2023-05-14T10:08:23.181Z,51.12
2023-05-14T10:10:52.434Z,48.41
2023-05-14T10:13:24.756Z,47.81
2023-05-14T10:15:58.635Z,48.21
2023-05-14T10:18:29.946Z,47.03
2023-05-14T10:21:03.780Z,47.05
2023-05-14T10:23:31.637Z,45.27
2023-05-14T10:26:00.525Z,46.61
2023-05-14T10:28:29.973Z,48.65
2023-05-14T10:30:57.864Z,49.89
2023-05-14T10:33:25.870Z,47.83
2023-05-14T10:35:58.399Z,47.85
2023-05-14T10:38:28.330Z,48.69
2023-05-14T10:41:02.396Z,48.72
2023-05-14T10:43:32.751Z,45.96
2023-05-14T10:46:01.461Z,46.06
2023-05-14T10:48:29.795Z,47.65
2023-05-14T10:50:58.647Z,49.26
2023-05-14T10:53:34.087Z,47.63
2023-05-14T10:56:05.821Z,48.51
2023-05-14T10:58:37.273Z,49.91
2023-05-14T11:01:06.566Z,49.02
2023-05-14T11:03:40.698Z,48.34
2023-05-14T11:06:09.531Z,47.16
2023-05-14T11:08:37.812Z,47.96
2023-05-14T11:11:06.812Z,49.93
2023-05-14T11:13:36.518Z,46.52
2023-05-14T11:16:21.128Z,48.07
2023-05-14T11:18:55.786Z,48.39
2023-05-14T11:21:23.819Z,48.62
2023-05-14T11:23:53.185Z,50.69
2023-05-14T11:26:21.755Z,59.80
2023-05-14T11:28:51.676Z,54.23
2023-05-14T11:31:20.222Z,56.96
2023-05-14T11:33:48.362Z,50.41
2023-05-14T11:36:16.893Z,51.05
2023-05-14T11:38:50.668Z,51.15
2023-05-14T11:41:21.148Z,48.98
2023-05-14T11:43:49.685Z,47.70
2023-05-14T11:46:19.767Z,43.84
2023-05-14T11:48:48.680Z,43.79
2023-05-14T11:51:16.610Z,44.14
2023-05-14T11:53:46.495Z,42.76
2023-05-14T11:56:14.975Z,43.15
2023-05-14T11:58:48.818Z,41.04
2023-05-14T12:01:17.863Z,40.73
2023-05-14T12:03:47.379Z,39.43
2023-05-14T12:06:15.456Z,42.33
2023-05-14T12:08:43.697Z,39.87
2023-05-14T12:11:11.984Z,41.91
2023-05-14T12:13:40.750Z,42.00
2023-05-14T12:16:08.660Z,43.61
2023-05-14T12:18:36.615Z,43.47
2023-05-14T12:21:08.516Z,44.56
2023-05-14T12:23:36.597Z,47.01
2023-05-14T12:26:06.172Z,53.19
2023-05-14T12:28:37.578Z,57.86
2023-05-14T12:31:06.198Z,53.06
2023-05-14T12:33:34.159Z,51.67
2023-05-14T12:36:13.512Z,49.88
2023-05-14T12:38:50.556Z,48.91
2023-05-14T12:41:18.882Z,48.51
2023-05-14T12:43:49.106Z,49.00
2023-05-14T12:46:17.104Z,47.57
2023-05-14T12:48:44.789Z,45.77
2023-05-14T12:51:12.384Z,46.27
2023-05-14T12:53:40.064Z,48.66
2023-05-14T12:56:09.708Z,47.45
2023-05-14T12:58:37.336Z,46.61
2023-05-14T13:01:05.785Z,46.75
2023-05-14T13:03:33.701Z,46.64
2023-05-14T13:06:01.424Z,47.44
2023-05-14T13:08:29.091Z,47.62
2023-05-14T13:10:57.458Z,47.96
2023-05-14T13:13:26.476Z,48.30
2023-05-14T13:15:54.399Z,46.94
2023-05-14T13:18:22.231Z,44.90
2023-05-14T13:20:49.873Z,45.46
2023-05-14T13:23:17.531Z,45.50
2023-05-14T13:25:45.780Z,45.45
2023-05-14T13:28:15.065Z,47.65
2023-05-14T13:31:03.909Z,46.08
2023-05-14T13:33:31.898Z,46.64
2023-05-14T13:35:59.519Z,47.93
2023-05-14T13:38:27.240Z,48.67
2023-05-14T13:40:57.274Z,50.19
2023-05-14T13:43:24.917Z,54.39
2023-05-14T13:45:54.086Z,52.01
2023-05-14T13:48:21.737Z,54.97
2023-05-14T13:50:50.102Z,51.76
2023-05-14T13:53:17.768Z,52.75
2023-05-14T13:55:46.697Z,50.14
2023-05-14T13:58:16.770Z,46.75
2023-05-14T14:00:44.403Z,48.86
2023-05-14T14:03:13.360Z,49.31
2023-05-14T14:05:41.055Z,46.70
2023-05-14T14:08:22.559Z,45.46
2023-05-14T14:10:51.495Z,44.59
2023-05-14T14:13:19.281Z,45.87
2023-05-14T14:15:46.918Z,43.11
2023-05-14T14:18:16.191Z,43.76
2023-05-14T14:20:43.795Z,43.82
2023-05-14T14:23:11.396Z,42.99
2023-05-14T14:25:39.073Z,43.76
2023-05-14T14:28:06.691Z,41.01
2023-05-14T14:30:34.664Z,41.25
2023-05-14T14:33:02.386Z,42.84
2023-05-14T14:35:33.331Z,42.61
2023-05-14T14:38:00.907Z,44.10
2023-05-14T14:40:29.707Z,42.70
2023-05-14T14:42:57.372Z,44.33
2023-05-14T14:45:25.295Z,42.01
2023-05-14T14:47:53.281Z,44.93
2023-05-14T14:50:20.921Z,43.96
2023-05-14T14:52:49.955Z,43.07
2023-05-14T14:55:17.545Z,45.38
2023-05-14T14:57:45.192Z,41.42
2023-05-14T15:00:13.711Z,42.48
2023-05-14T15:02:42.969Z,43.44
2023-05-14T15:05:10.775Z,45.19
2023-05-14T15:07:38.411Z,48.02
2023-05-14T15:10:08.109Z,50.42
2023-05-14T15:12:35.708Z,49.78
2023-05-14T15:15:03.359Z,51.77
2023-05-14T15:17:31.023Z,49.16
2023-05-14T15:19:58.708Z,46.45
2023-05-14T15:22:26.311Z,47.23
2023-05-14T15:24:53.911Z,51.11
2023-05-14T15:27:22.880Z,53.33
2023-05-14T15:29:50.556Z,52.77
2023-05-14T15:32:18.303Z,48.79
2023-05-14T15:34:45.920Z,47.76
2023-05-14T15:37:13.536Z,45.48
2023-05-14T15:39:41.161Z,45.45
2023-05-14T15:42:08.886Z,47.91
2023-05-14T15:44:39.042Z,47.41
2023-05-14T15:47:07.116Z,46.39
2023-05-14T15:49:34.792Z,44.38
2023-05-14T15:52:02.856Z,46.57
2023-05-14T15:54:30.865Z,44.77
2023-05-14T15:56:58.456Z,48.40
2023-05-14T15:59:26.130Z,45.63
2023-05-14T16:01:55.293Z,43.72
2023-05-14T16:04:22.998Z,45.02
2023-05-14T16:06:51.909Z,46.01
2023-05-14T16:09:19.647Z,43.75
2023-05-14T16:11:47.229Z,44.01
2023-05-14T16:14:14.849Z,45.52
2023-05-14T16:16:42.511Z,43.90
2023-05-14T16:19:11.765Z,46.47
2023-05-14T16:21:39.514Z,47.04
2023-05-14T16:24:07.681Z,46.82
2023-05-14T16:26:35.292Z,47.67
2023-05-14T16:29:02.923Z,48.28
2023-05-14T16:31:31.468Z,47.34
2023-05-14T16:33:59.278Z,47.17
2023-05-14T16:36:28.361Z,47.45
2023-05-14T16:39:07.341Z,48.28
2023-05-14T16:41:35.567Z,48.66
2023-05-14T16:44:03.326Z,51.18
2023-05-14T16:46:32.053Z,51.56
2023-05-14T16:48:59.997Z,52.00
2023-05-14T16:51:29.085Z,52.08
2023-05-14T16:53:56.731Z,51.74
2023-05-14T16:56:24.317Z,50.47
2023-05-14T16:58:51.991Z,49.92
2023-05-14T17:01:19.777Z,54.51
2023-05-14T17:03:47.457Z,52.18
2023-05-14T17:06:15.126Z,54.63
2023-05-14T17:08:44.148Z,55.47
2023-05-14T17:11:11.778Z,58.19
2023-05-14T17:13:39.488Z,58.99
2023-05-14T17:16:07.589Z,58.70
2023-05-14T17:18:35.380Z,58.43
2023-05-14T17:21:04.745Z,59.21
2023-05-14T17:23:32.326Z,56.56
2023-05-14T17:26:01.432Z,58.47
2023-05-14T17:28:29.957Z,59.29
2023-05-14T17:30:57.633Z,55.01
2023-05-14T17:33:25.420Z,59.11
2023-05-14T17:35:53.084Z,57.28
2023-05-14T17:38:20.721Z,57.46
2023-05-14T17:40:48.772Z,59.66
2023-05-14T17:43:17.875Z,62.64
2023-05-14T17:45:53.753Z,59.82
2023-05-14T17:48:22.094Z,58.63
2023-05-14T17:50:49.815Z,56.33
2023-05-14T17:53:17.482Z,54.58
2023-05-14T17:55:45.185Z,53.56
2023-05-14T17:58:13.444Z,53.89
2023-05-14T18:00:42.688Z,58.85
2023-05-14T18:03:10.506Z,61.41
2023-05-14T18:05:38.360Z,61.92
2023-05-14T18:08:06.303Z,61.15
2023-05-14T18:10:33.929Z,58.40
2023-05-14T18:13:01.691Z,59.11
2023-05-14T18:15:31.493Z,66.02
2023-05-14T18:18:00.802Z,68.18
2023-05-14T18:20:28.590Z,68.01
2023-05-14T18:22:56.248Z,68.16
2023-05-14T18:25:24.128Z,68.88
2023-05-14T18:27:51.959Z,70.41
2023-05-14T18:30:19.716Z,70.80
2023-05-14T18:32:47.485Z,71.52
2023-05-14T18:35:16.560Z,72.86
2023-05-14T18:37:44.245Z,72.54
2023-05-14T18:40:16.238Z,74.92
2023-05-14T18:43:06.188Z,75.55
2023-05-14T18:45:34.076Z,77.46
2023-05-14T18:48:01.821Z,79.40
2023-05-14T18:50:29.472Z,80.37
2023-05-14T18:52:57.171Z,81.07
2023-05-14T18:55:25.178Z,80.97
2023-05-14T18:57:53.125Z,81.34
2023-05-14T19:00:22.339Z,81.88
2023-05-14T19:02:50.144Z,81.81
2023-05-14T19:05:17.822Z,80.99
2023-05-14T19:07:47.944Z,81.92
2023-05-14T19:10:15.907Z,81.78
2023-05-14T19:12:43.580Z,81.50
2023-05-14T19:15:12.086Z,80.73
2023-05-14T19:17:41.964Z,80.95
2023-05-14T19:20:10.478Z,81.30
2023-05-14T19:22:38.241Z,80.86
2023-05-14T19:25:07.869Z,81.81
2023-05-14T19:27:37.742Z,82.65
2023-05-14T19:30:06.213Z,82.63
2023-05-14T19:32:36.036Z,82.71
2023-05-14T19:35:05.980Z,83.29
2023-05-14T19:37:35.168Z,83.31
2023-05-14T19:40:03.647Z,83.78
2023-05-14T19:42:31.795Z,84.64
2023-05-14T19:44:59.428Z,85.54
2023-05-14T19:47:28.450Z,86.40
2023-05-14T19:49:56.427Z,85.69
2023-05-14T19:52:25.639Z,85.48
2023-05-14T19:54:53.256Z,83.15
2023-05-14T19:57:21.366Z,83.25
2023-05-14T19:59:49.274Z,82.63
2023-05-14T20:02:18.577Z,82.75
2023-05-14T20:04:47.401Z,83.47
2023-05-14T20:07:15.739Z,84.27
2023-05-14T20:09:44.898Z,84.83
2023-05-14T20:12:13.260Z,85.53
2023-05-14T20:14:41.522Z,86.17
2023-05-14T20:17:09.349Z,86.31
2023-05-14T20:19:37.442Z,86.23
2023-05-14T20:22:05.369Z,85.83
2023-05-14T20:24:33.546Z,85.86
2023-05-14T20:27:03.052Z,85.57
2023-05-14T20:29:30.614Z,85.04
2023-05-14T20:31:58.276Z,85.47
2023-05-14T20:34:26.056Z,85.82
2023-05-14T20:36:53.706Z,86.42
2023-05-14T20:39:21.362Z,86.92
2023-05-14T20:41:49.252Z,87.25
2023-05-14T20:44:19.929Z,87.94
2023-05-14T20:46:48.498Z,88.01
2023-05-14T20:49:16.318Z,88.21
2023-05-14T20:51:43.881Z,88.32
2023-05-14T20:54:11.619Z,87.50
2023-05-14T20:56:39.315Z,87.81
2023-05-14T20:59:07.049Z,88.20
2023-05-14T21:01:36.099Z,88.62
2023-05-14T21:04:03.862Z,89.10
2023-05-14T21:06:31.915Z,89.44
2023-05-14T21:08:59.502Z,89.89
2023-05-14T21:11:27.140Z,90.81
2023-05-14T21:13:54.787Z,90.81
2023-05-14T21:16:22.582Z,90.69
2023-05-14T21:18:51.665Z,91.15
2023-05-14T21:21:19.418Z,91.43
2023-05-14T21:23:47.120Z,91.50
2023-05-14T21:26:14.733Z,91.04
2023-05-14T21:28:42.394Z,91.25
2023-05-14T21:31:10.563Z,90.21
2023-05-14T21:33:38.273Z,90.62
2023-05-14T21:36:08.065Z,90.64
2023-05-14T21:38:36.076Z,90.28
2023-05-14T21:41:03.677Z,90.03
2023-05-14T21:43:31.251Z,90.75
2023-05-14T21:45:58.994Z,90.40
2023-05-14T21:48:26.686Z,90.78
2023-05-14T21:50:54.392Z,91.11
2023-05-14T21:53:23.596Z,90.99
2023-05-14T21:55:51.282Z,91.04
2023-05-14T21:58:19.101Z,90.99
2023-05-14T22:00:46.764Z,91.41
2023-05-14T22:03:14.472Z,91.17
2023-05-14T22:05:42.193Z,91.12
2023-05-14T22:08:10.061Z,90.73
2023-05-14T22:10:39.032Z,90.65
2023-05-14T22:13:06.701Z,90.96
2023-05-14T22:15:34.348Z,91.29
2023-05-14T22:18:03.079Z,90.65
2023-05-14T22:20:30.840Z,91.60
2023-05-14T22:22:58.468Z,91.61
2023-05-14T22:25:26.427Z,91.81
2023-05-14T22:27:55.729Z,91.74
2023-05-14T22:30:23.427Z,91.96
2023-05-14T22:32:51.087Z,92.22
2023-05-14T22:35:18.892Z,92.19
2023-05-14T22:37:46.461Z,93.16
2023-05-14T22:40:14.531Z,94.03
2023-05-14T22:42:42.186Z,94.31
2023-05-14T22:45:11.679Z,94.35
2023-05-14T22:47:39.387Z,94.19
2023-05-14T22:50:11.376Z,93.94
2023-05-14T22:52:39.362Z,93.84
2023-05-14T22:55:07.770Z,94.48
2023-05-14T22:57:35.731Z,94.31
2023-05-14T23:00:04.145Z,94.65
2023-05-14T23:02:33.134Z,95.12
2023-05-14T23:05:00.929Z,94.95
2023-05-14T23:07:28.572Z,94.75
2023-05-14T23:09:56.167Z,94.97
2023-05-14T23:12:23.757Z,94.94
2023-05-14T23:14:51.426Z,94.75
2023-05-14T23:17:19.050Z,94.76
2023-05-14T23:19:48.072Z,94.87
2023-05-14T23:22:15.748Z,95.14
2023-05-14T23:24:43.522Z,95.32
2023-05-14T23:27:11.856Z,95.09
2023-05-14T23:29:39.626Z,94.80
2023-05-14T23:32:08.255Z,95.49
2023-05-14T23:34:36.054Z,95.42
2023-05-14T23:37:05.325Z,96.37
2023-05-14T23:39:33.035Z,96.39
2023-05-14T23:42:00.635Z,96.13
2023-05-14T23:44:28.340Z,95.75
2023-05-14T23:46:56.024Z,96.00
2023-05-14T23:49:23.716Z,95.66
2023-05-14T23:51:51.597Z,96.81
2023-05-14T23:54:21.110Z,97.85
2023-05-14T23:56:48.833Z,96.10
2023-05-14T23:59:16.753Z,96.61
